createdAt,value
2018-02-17T00:01:59.900Z,27.67
2018-02-17T00:04:42.536Z,27.15
2018-02-17T00:07:16.747Z,37.70
2018-02-17T00:09:56.632Z,24.58
2018-02-17T00:12:37.374Z,25.83
2018-02-17T00:15:15.638Z,47.95
2018-02-17T00:17:57.390Z,24.42
2018-02-17T00:20:36.969Z,32.10
2018-02-17T00:23:16.306Z,25.10
2018-02-17T00:25:56.191Z,27.92
2018-02-17T00:28:30.353Z,28.02
2018-02-17T00:31:05.600Z,28.98
2018-02-17T00:33:38.054Z,24.20
2018-02-17T00:36:18.122Z,29.33
2018-02-17T00:38:57.445Z,23.67
2018-02-17T00:41:36.047Z,26.73
2018-02-17T00:44:14.199Z,29.20
2018-02-17T00:46:53.768Z,24.25
2018-02-17T00:49:32.210Z,41.60
2018-02-17T00:52:11.596Z,29.33
2018-02-17T00:54:50.543Z,31.23
2018-02-17T00:57:29.364Z,26.92
2018-02-17T01:00:10.352Z,30.12
2018-02-17T01:02:49.624Z,33.95
2018-02-17T01:05:27.936Z,25.05
2018-02-17T01:08:05.092Z,32.17
2018-02-17T01:10:46.002Z,27.30
2018-02-17T01:13:26.812Z,32.65
2018-02-17T01:16:10.627Z,21.73
2018-02-17T01:18:50.598Z,19.70
2018-02-17T01:21:29.988Z,25.95
2018-02-17T01:24:08.534Z,26.45
2018-02-17T01:26:47.430Z,27.25
2018-02-17T01:29:27.097Z,21.87
2018-02-17T01:32:08.698Z,23.05
2018-02-17T01:34:47.973Z,29.23
2018-02-17T01:37:27.377Z,25.05
2018-02-17T01:40:07.569Z,28.35
2018-02-17T01:42:49.220Z,17.87
2018-02-17T01:45:28.626Z,23.38
2018-02-17T01:48:06.357Z,24.35
2018-02-17T01:50:46.656Z,27.55
2018-02-17T01:53:26.089Z,22.87
2018-02-17T01:56:03.334Z,24.85
2018-02-17T01:58:45.332Z,17.92
2018-02-17T02:01:28.725Z,30.05
2018-02-17T02:04:01.567Z,28.10
2018-02-17T02:06:41.283Z,29.30
2018-02-17T02:09:18.780Z,33.67
2018-02-17T02:11:52.861Z,32.05
2018-02-17T02:14:25.339Z,22.35
2018-02-17T02:17:04.394Z,29.60
2018-02-17T02:19:42.176Z,23.52
2018-02-17T02:22:20.385Z,31.05
2018-02-17T02:24:58.086Z,19.98
2018-02-17T02:27:31.641Z,30.40
2018-02-17T02:30:05.201Z,24.02
2018-02-17T02:32:38.184Z,17.10
2018-02-17T02:35:17.151Z,25.55
2018-02-17T02:37:56.428Z,27.87
2018-02-17T02:40:35.167Z,28.65
2018-02-17T02:43:12.962Z,20.67
2018-02-17T02:45:53.339Z,20.90
2018-02-17T02:48:31.979Z,25.15
2018-02-17T02:51:14.923Z,22.00
2018-02-17T02:53:56.063Z,24.70
2018-02-17T02:56:34.763Z,27.92
2018-02-17T02:59:13.680Z,27.02
2018-02-17T03:01:52.668Z,36.13
2018-02-17T03:04:33.091Z,23.70
2018-02-17T03:07:12.361Z,22.37
2018-02-17T03:09:52.065Z,20.60
2018-02-17T03:12:25.579Z,21.90
2018-02-17T03:15:05.412Z,19.20
2018-02-17T03:17:42.811Z,21.27
2018-02-17T03:20:22.401Z,21.48
2018-02-17T03:23:02.349Z,23.80
2018-02-17T03:25:44.998Z,24.00
2018-02-17T03:28:24.582Z,19.58
2018-02-17T03:31:03.751Z,26.48
2018-02-17T03:33:43.193Z,17.62
2018-02-17T03:36:19.929Z,18.17
2018-02-17T03:39:01.091Z,27.27
2018-02-17T03:41:40.487Z,17.87
2018-02-17T03:44:17.532Z,19.08
2018-02-17T03:46:55.220Z,23.05
2018-02-17T03:49:35.024Z,19.45
2018-02-17T03:52:13.915Z,25.10
2018-02-17T03:54:52.969Z,21.05
2018-02-17T03:57:30.951Z,23.77
2018-02-17T04:00:09.133Z,25.10
2018-02-17T04:02:48.409Z,25.85
2018-02-17T04:05:26.749Z,26.50
2018-02-17T04:08:04.995Z,23.80
2018-02-17T04:10:43.696Z,17.48
2018-02-17T04:13:20.922Z,23.52
2018-02-17T04:15:58.446Z,21.15
2018-02-17T04:18:39.074Z,18.17
2018-02-17T04:21:17.703Z,17.80
2018-02-17T04:23:56.478Z,29.90
2018-02-17T04:26:36.698Z,26.45
2018-02-17T04:29:13.827Z,27.50
2018-02-17T04:31:54.740Z,23.40
2018-02-17T04:34:33.580Z,22.20
2018-02-17T04:37:12.468Z,21.67
2018-02-17T04:39:53.773Z,19.20
2018-02-17T04:42:48.164Z,38.55
2018-02-17T04:45:23.678Z,21.77
2018-02-17T04:48:01.392Z,26.45
2018-02-17T04:50:44.821Z,32.10
2018-02-17T04:53:23.802Z,26.33
2018-02-17T04:56:15.722Z,28.38
2018-02-17T04:59:04.669Z,21.55
2018-02-17T05:01:46.741Z,23.62
2018-02-17T05:04:34.878Z,26.55
2018-02-17T05:07:27.501Z,21.20
2018-02-17T05:10:01.080Z,28.65
2018-02-17T05:12:47.360Z,27.30
2018-02-17T05:15:41.108Z,25.25
2018-02-17T05:18:29.357Z,20.90
2018-02-17T05:21:06.381Z,25.37
2018-02-17T05:23:42.394Z,25.00
2018-02-17T05:26:26.970Z,21.27
2018-02-17T05:29:06.605Z,26.02
2018-02-17T05:31:45.416Z,26.37
2018-02-17T05:34:33.600Z,16.80
2018-02-17T05:37:14.970Z,30.02
2018-02-17T05:39:56.682Z,35.78
2018-02-17T05:42:35.046Z,20.75
2018-02-17T05:45:15.147Z,25.02
2018-02-17T05:47:54.582Z,29.42
2018-02-17T05:50:36.454Z,25.17
2018-02-17T05:53:16.608Z,23.17
2018-02-17T05:55:56.753Z,21.62
2018-02-17T05:58:36.224Z,28.05
2018-02-17T06:01:15.540Z,37.05
2018-02-17T06:03:54.352Z,24.95
2018-02-17T06:06:33.875Z,34.63
2018-02-17T06:09:13.297Z,26.92
2018-02-17T06:11:53.143Z,31.55
2018-02-17T06:14:31.395Z,24.08
2018-02-17T06:17:12.340Z,31.48
2018-02-17T06:19:53.838Z,16.98
2018-02-17T06:22:34.226Z,23.45
2018-02-17T06:25:10.946Z,27.92
2018-02-17T06:27:49.427Z,27.77
2018-02-17T06:30:27.274Z,19.55
2018-02-17T06:33:05.062Z,23.92
2018-02-17T06:35:43.137Z,27.95
2018-02-17T06:38:23.453Z,23.17
2018-02-17T06:41:01.673Z,23.42
2018-02-17T06:43:40.524Z,44.80
2018-02-17T06:46:20.211Z,22.98
2018-02-17T06:49:00.140Z,22.77
2018-02-17T06:51:33.441Z,30.98
2018-02-17T06:54:13.356Z,33.25
2018-02-17T06:56:51.847Z,28.33
2018-02-17T06:59:33.147Z,26.42
2018-02-17T07:02:06.596Z,28.65
2018-02-17T07:04:45.772Z,23.87
2018-02-17T07:07:25.055Z,30.67
2018-02-17T07:10:05.547Z,25.92
2018-02-17T07:12:44.616Z,28.02
2018-02-17T07:15:27.852Z,38.63
2018-02-17T07:18:05.360Z,33.38
2018-02-17T07:20:43.344Z,28.60
2018-02-17T07:23:16.591Z,30.12
2018-02-17T07:25:56.551Z,27.67
2018-02-17T07:28:36.313Z,37.40
2018-02-17T07:31:15.329Z,29.75
2018-02-17T07:33:53.933Z,26.25
2018-02-17T07:36:34.639Z,26.33
2018-02-17T07:39:14.565Z,31.15
2018-02-17T07:41:54.807Z,46.80
2018-02-17T07:44:34.625Z,43.80
2018-02-17T07:47:14.270Z,30.95
2018-02-17T07:49:53.810Z,38.38
2018-02-17T07:52:34.479Z,37.33
2018-02-17T07:55:14.111Z,40.25
2018-02-17T07:57:48.917Z,36.15
2018-02-17T08:00:27.802Z,49.33
2018-02-17T08:03:01.710Z,41.72
2018-02-17T08:05:40.911Z,32.30
2018-02-17T08:08:21.141Z,48.05
2018-02-17T08:10:55.030Z,37.08
2018-02-17T08:13:36.118Z,54.85
2018-02-17T08:16:08.297Z,40.80
2018-02-17T08:18:48.133Z,37.15
2018-02-17T08:21:28.678Z,49.75
2018-02-17T08:24:05.593Z,43.08
2018-02-17T08:26:45.674Z,40.70
2018-02-17T08:29:25.532Z,41.15
2018-02-17T08:32:00.853Z,32.80
2018-02-17T08:34:40.403Z,36.78
2018-02-17T08:37:20.996Z,40.33
2018-02-17T08:39:59.052Z,43.55
2018-02-17T08:42:39.197Z,45.72
2018-02-17T08:45:18.869Z,42.95
2018-02-17T08:47:58.361Z,36.97
2018-02-17T08:50:31.772Z,41.05
2018-02-17T08:53:08.663Z,35.58
2018-02-17T08:55:49.944Z,39.22
2018-02-17T08:58:30.524Z,33.75
2018-02-17T09:01:06.886Z,32.40
2018-02-17T09:03:41.592Z,35.20
2018-02-17T09:06:21.392Z,30.58
2018-02-17T09:08:59.467Z,37.15
2018-02-17T09:11:40.136Z,37.38
2018-02-17T09:14:16.291Z,28.83
2018-02-17T09:16:57.725Z,36.25
2018-02-17T09:19:32.084Z,30.23
2018-02-17T09:22:13.279Z,29.48
2018-02-17T09:24:56.589Z,32.55
2018-02-17T09:27:36.561Z,30.75
2018-02-17T09:30:17.180Z,32.47
2018-02-17T09:32:58.911Z,34.95
2018-02-17T09:35:34.120Z,38.15
2018-02-17T09:38:13.446Z,30.50
2018-02-17T09:40:51.378Z,34.58
2018-02-17T09:43:29.136Z,33.17
2018-02-17T09:46:07.523Z,30.20
2018-02-17T09:48:42.594Z,32.65
2018-02-17T09:51:22.813Z,33.53
2018-02-17T09:54:02.756Z,34.10
2018-02-17T09:56:35.646Z,34.28
2018-02-17T09:59:14.509Z,28.02
2018-02-17T10:01:54.630Z,28.38
2018-02-17T10:04:32.995Z,29.70
2018-02-17T10:07:08.160Z,30.73
2018-02-17T10:09:42.756Z,27.05
2018-02-17T10:12:21.992Z,29.90
2018-02-17T10:15:01.841Z,32.42
2018-02-17T10:17:40.253Z,28.73
2018-02-17T10:20:15.061Z,28.77
2018-02-17T10:22:58.343Z,27.25
2018-02-17T10:25:32.336Z,35.40
2018-02-17T10:28:12.374Z,24.75
2018-02-17T10:30:50.859Z,37.13
2018-02-17T10:33:29.180Z,32.20
2018-02-17T10:36:03.431Z,33.67
2018-02-17T10:38:42.827Z,29.92
2018-02-17T10:41:21.228Z,28.67
2018-02-17T10:44:00.621Z,32.10
2018-02-17T10:46:41.263Z,26.73
2018-02-17T10:49:14.068Z,37.03
2018-02-17T10:51:55.018Z,31.60
2018-02-17T10:54:32.255Z,28.12
2018-02-17T10:57:11.740Z,29.55
2018-02-17T10:59:49.490Z,25.58
2018-02-17T11:02:25.634Z,29.60
2018-02-17T11:05:04.848Z,22.42
2018-02-17T11:07:45.243Z,34.58
2018-02-17T11:10:23.200Z,26.23
2018-02-17T11:13:04.453Z,25.23
2018-02-17T11:15:43.841Z,31.85
2018-02-17T11:18:27.137Z,29.00
2018-02-17T11:21:05.054Z,28.42
2018-02-17T11:23:41.098Z,30.60
2018-02-17T11:26:14.866Z,24.15
2018-02-17T11:28:49.242Z,29.02
2018-02-17T11:31:28.721Z,29.85
2018-02-17T11:34:07.692Z,33.47
2018-02-17T11:36:41.136Z,25.45
2018-02-17T11:39:19.108Z,29.58
2018-02-17T11:41:58.298Z,32.17
2018-02-17T11:44:32.409Z,29.05
2018-02-17T11:47:06.495Z,28.92
2018-02-17T11:49:43.259Z,28.12
2018-02-17T11:52:23.295Z,27.55
2018-02-17T11:54:57.881Z,27.35
2018-02-17T11:57:37.839Z,25.27
2018-02-17T12:00:17.897Z,20.67
2018-02-17T12:02:51.295Z,20.02
2018-02-17T12:05:25.724Z,23.83
2018-02-17T12:08:05.906Z,23.67
2018-02-17T12:10:46.078Z,22.70
2018-02-17T12:13:26.640Z,30.08
2018-02-17T12:15:59.568Z,36.30
2018-02-17T12:18:41.350Z,27.20
2018-02-17T12:21:20.980Z,25.35
2018-02-17T12:24:03.193Z,28.58
2018-02-17T12:26:36.847Z,24.85
2018-02-17T12:29:17.160Z,23.83
2018-02-17T12:31:55.672Z,27.42
2018-02-17T12:34:30.201Z,27.27
2018-02-17T12:37:09.214Z,22.00
2018-02-17T12:39:47.299Z,24.42
2018-02-17T12:42:26.560Z,26.85
2018-02-17T12:44:59.312Z,21.65
2018-02-17T12:47:34.398Z,26.48
2018-02-17T12:50:12.922Z,19.30
2018-02-17T12:52:52.852Z,22.62
2018-02-17T12:55:29.042Z,23.20
2018-02-17T12:58:04.389Z,23.58
2018-02-17T13:00:38.738Z,24.50
2018-02-17T13:03:13.470Z,27.45
2018-02-17T13:05:46.906Z,22.75
2018-02-17T13:08:26.117Z,31.17
2018-02-17T13:11:03.767Z,42.10
2018-02-17T13:13:42.739Z,27.02
2018-02-17T13:16:21.829Z,25.20
2018-02-17T13:18:57.898Z,19.70
2018-02-17T13:21:33.942Z,27.58
2018-02-17T13:24:12.631Z,23.65
2018-02-17T13:26:48.428Z,32.40
2018-02-17T13:29:22.394Z,29.25
2018-02-17T13:32:01.433Z,25.77
2018-02-17T13:34:43.206Z,29.08
2018-02-17T13:37:23.648Z,25.90
2018-02-17T13:39:58.751Z,30.10
2018-02-17T13:42:37.956Z,28.00
2018-02-17T13:45:16.157Z,29.02
2018-02-17T13:47:53.504Z,26.00
2018-02-17T13:50:32.585Z,27.20
2018-02-17T13:53:06.472Z,28.20
2018-02-17T13:55:47.168Z,24.23
2018-02-17T13:58:29.123Z,27.98
2018-02-17T14:01:01.606Z,36.10
2018-02-17T14:03:42.467Z,25.27
2018-02-17T14:06:17.520Z,28.45
2018-02-17T14:08:56.873Z,21.25
2018-02-17T14:11:38.660Z,20.67
2018-02-17T14:14:18.945Z,27.52
2018-02-17T14:16:59.078Z,34.45
2018-02-17T14:19:32.646Z,23.90
2018-02-17T14:22:12.862Z,23.65
2018-02-17T14:24:54.991Z,24.37
2018-02-17T14:27:32.500Z,26.00
2018-02-17T14:30:10.479Z,22.10
2018-02-17T14:32:47.059Z,25.10
2018-02-17T14:35:20.252Z,23.27
2018-02-17T14:37:54.576Z,23.25
2018-02-17T14:40:28.355Z,29.83
2018-02-17T14:43:02.279Z,22.73
2018-02-17T14:45:45.588Z,25.75
2018-02-17T14:48:25.713Z,27.95
2018-02-17T14:50:59.606Z,32.88
2018-02-17T14:53:38.335Z,27.70
2018-02-17T14:56:16.672Z,26.15
2018-02-17T14:58:51.454Z,28.50
2018-02-17T15:01:25.199Z,22.75
2018-02-17T15:03:58.356Z,28.40
2018-02-17T15:06:40.733Z,34.92
2018-02-17T15:09:13.761Z,24.58
2018-02-17T15:11:54.092Z,26.45
2018-02-17T15:14:31.851Z,25.40
2018-02-17T15:17:10.672Z,35.08
2018-02-17T15:19:44.516Z,25.00
2018-02-17T15:22:16.838Z,24.77
2018-02-17T15:24:56.986Z,27.67
2018-02-17T15:27:34.755Z,26.87
2018-02-17T15:30:09.886Z,27.75
2018-02-17T15:32:44.952Z,29.85
2018-02-17T15:35:24.648Z,33.20
2018-02-17T15:38:05.559Z,26.37
2018-02-17T15:40:44.666Z,25.23
2018-02-17T15:43:24.477Z,20.77
2018-02-17T15:46:03.368Z,33.38
2018-02-17T15:48:45.371Z,22.85
2018-02-17T15:51:25.309Z,29.02
2018-02-17T15:54:07.178Z,29.77
2018-02-17T15:56:48.069Z,28.07
2018-02-17T15:59:21.455Z,30.05
2018-02-17T16:01:59.929Z,38.60
2018-02-17T16:04:35.816Z,28.45
2018-02-17T16:07:16.129Z,31.55
2018-02-17T16:09:50.229Z,29.48
2018-02-17T16:12:30.880Z,19.83
2018-02-17T16:15:13.879Z,28.73
2018-02-17T16:17:53.939Z,30.30
2018-02-17T16:20:32.138Z,22.65
2018-02-17T16:23:10.443Z,39.10
2018-02-17T16:25:43.890Z,26.52
2018-02-17T16:28:18.274Z,30.48
2018-02-17T16:30:52.356Z,22.33
2018-02-17T16:33:26.472Z,30.75
2018-02-17T16:36:05.206Z,28.60
2018-02-17T16:38:45.937Z,26.42
2018-02-17T16:41:32.027Z,25.65
2018-02-17T16:44:10.848Z,27.17
2018-02-17T16:46:51.148Z,28.27
2018-02-17T16:49:24.594Z,30.85
2018-02-17T16:51:58.656Z,32.40
2018-02-17T16:54:32.017Z,33.47
2018-02-17T16:57:10.044Z,33.55
2018-02-17T16:59:43.322Z,26.87
2018-02-17T17:02:16.352Z,29.87
2018-02-17T17:04:56.036Z,30.88
2018-02-17T17:07:29.338Z,34.70
2018-02-17T17:10:02.904Z,32.05
2018-02-17T17:12:37.598Z,36.05
2018-02-17T17:15:16.348Z,31.30
2018-02-17T17:17:50.254Z,30.65
2018-02-17T17:20:30.221Z,41.45
2018-02-17T17:23:09.255Z,39.75
2018-02-17T17:25:48.608Z,31.48
2018-02-17T17:28:22.582Z,30.15
2018-02-17T17:31:01.733Z,34.13
2018-02-17T17:33:39.484Z,46.28
2018-02-17T17:36:22.050Z,37.58
2018-02-17T17:38:55.266Z,32.88
2018-02-17T17:41:28.390Z,40.47
2018-02-17T17:44:08.256Z,40.00
2018-02-17T17:46:42.300Z,41.22
2018-02-17T17:49:20.754Z,40.20
2018-02-17T17:51:59.257Z,29.27
2018-02-17T17:54:32.765Z,40.10
2018-02-17T17:57:11.940Z,39.78
2018-02-17T17:59:51.181Z,41.95
2018-02-17T18:02:30.112Z,47.55
2018-02-17T18:05:07.753Z,36.35
2018-02-17T18:07:41.269Z,41.58
2018-02-17T18:10:19.272Z,38.38
2018-02-17T18:12:52.909Z,39.67
2018-02-17T18:15:34.545Z,37.22
2018-02-17T18:18:08.419Z,41.08
2018-02-17T18:20:46.676Z,48.90
2018-02-17T18:23:26.617Z,41.58
2018-02-17T18:26:01.136Z,41.53
2018-02-17T18:28:36.225Z,48.22
2018-02-17T18:31:15.076Z,41.50
2018-02-17T18:33:55.758Z,39.15
2018-02-17T18:36:36.779Z,43.80
2018-02-17T18:39:15.993Z,57.40
2018-02-17T18:41:55.861Z,62.67
2018-02-17T18:44:36.116Z,45.42
2018-02-17T18:47:15.392Z,45.78
2018-02-17T18:49:55.256Z,41.75
2018-02-17T18:52:36.207Z,43.08
2018-02-17T18:55:16.553Z,51.88
2018-02-17T18:57:55.664Z,44.78
2018-02-17T19:00:36.370Z,58.10
2018-02-17T19:03:16.078Z,49.63
2018-02-17T19:05:57.346Z,42.50
2018-02-17T19:08:37.545Z,60.60
2018-02-17T19:11:19.237Z,47.67
2018-02-17T19:14:02.178Z,54.17
2018-02-17T19:16:39.826Z,60.53
2018-02-17T19:19:19.286Z,67.85
2018-02-17T19:21:52.466Z,47.45
2018-02-17T19:24:32.056Z,56.75
2018-02-17T19:27:10.348Z,58.35
2018-02-17T19:29:42.278Z,54.22
2018-02-17T19:32:21.000Z,52.20
2018-02-17T19:34:58.048Z,72.25
2018-02-17T19:37:38.488Z,51.28
2018-02-17T19:40:11.530Z,42.97
2018-02-17T19:42:50.448Z,52.53
2018-02-17T19:45:30.844Z,59.53
2018-02-17T19:48:09.752Z,59.17
2018-02-17T19:50:47.479Z,45.53
2018-02-17T19:53:28.936Z,53.78
2018-02-17T19:56:07.505Z,49.72
2018-02-17T19:58:47.059Z,49.47
2018-02-17T20:01:27.498Z,50.08
2018-02-17T20:04:07.241Z,55.45
2018-02-17T20:06:45.448Z,44.75
2018-02-17T20:09:26.372Z,55.35
2018-02-17T20:12:04.339Z,57.17
2018-02-17T20:14:45.494Z,47.15
2018-02-17T20:17:24.383Z,40.63
2018-02-17T20:20:01.846Z,46.75
2018-02-17T20:22:41.030Z,48.78
2018-02-17T20:25:15.113Z,44.97
2018-02-17T20:27:53.091Z,49.30
2018-02-17T20:30:33.028Z,55.50
2018-02-17T20:33:13.416Z,52.28
2018-02-17T20:35:54.705Z,69.30
2018-02-17T20:38:35.086Z,51.88
2018-02-17T20:41:15.897Z,69.72
2018-02-17T20:43:54.203Z,45.35
2018-02-17T20:46:31.740Z,51.25
2018-02-17T20:49:00.671Z,43.40
2018-02-17T20:51:41.062Z,53.80
2018-02-17T20:54:20.460Z,61.17
2018-02-17T20:57:02.803Z,50.10
2018-02-17T20:59:41.101Z,50.50
2018-02-17T21:05:04.134Z,51.97
2018-02-17T21:07:42.691Z,43.05
2018-02-17T21:10:16.900Z,46.35
2018-02-17T21:12:55.327Z,49.28
2018-02-17T21:15:34.070Z,45.50
2018-02-17T21:18:14.373Z,55.38
2018-02-17T21:20:53.302Z,45.38
2018-02-17T21:23:31.948Z,50.83
2018-02-17T21:26:13.170Z,53.17
2018-02-17T21:28:51.350Z,64.97
2018-02-17T21:31:31.023Z,54.58
2018-02-17T21:34:08.391Z,50.05
2018-02-17T21:36:47.058Z,61.20
2018-02-17T21:39:22.819Z,56.03
2018-02-17T21:41:55.956Z,52.33
2018-02-17T21:44:33.007Z,54.17
2018-02-17T21:47:12.950Z,46.80
2018-02-17T21:49:52.425Z,54.15
2018-02-17T21:52:30.502Z,47.83
2018-02-17T21:55:09.094Z,47.25
2018-02-17T21:57:46.224Z,45.47
2018-02-17T22:00:26.018Z,50.15
2018-02-17T22:03:05.811Z,49.60
2018-02-17T22:05:44.488Z,52.50
2018-02-17T22:08:17.830Z,49.95
2018-02-17T22:10:51.555Z,46.83
2018-02-17T22:13:31.312Z,51.65
2018-02-17T22:16:04.118Z,54.78
2018-02-17T22:18:37.484Z,60.63
2018-02-17T22:21:14.724Z,58.30
2018-02-17T22:23:53.768Z,56.25
2018-02-17T22:26:27.221Z,50.03
2018-02-17T22:29:06.689Z,56.95
2018-02-17T22:31:46.965Z,48.58
2018-02-17T22:34:28.081Z,51.33
2018-02-17T22:37:03.591Z,49.03
2018-02-17T22:39:42.959Z,53.85
2018-02-17T22:42:21.875Z,55.35
2018-02-17T22:45:01.199Z,64.62
2018-02-17T22:47:34.446Z,52.25
2018-02-17T22:50:14.083Z,56.70
2018-02-17T22:52:53.517Z,50.55
2018-02-17T22:55:35.248Z,70.95
2018-02-17T22:58:17.409Z,50.05
2018-02-17T23:00:54.487Z,49.92
2018-02-17T23:03:32.826Z,55.30
2018-02-17T23:06:10.603Z,52.92
2018-02-17T23:08:49.258Z,60.28
2018-02-17T23:11:28.882Z,57.92
2018-02-17T23:14:03.472Z,56.72
2018-02-17T23:16:37.118Z,54.17
2018-02-17T23:19:16.183Z,44.53
2018-02-17T23:21:55.593Z,49.72
2018-02-17T23:24:33.024Z,47.50
2018-02-17T23:27:11.986Z,54.67
2018-02-17T23:29:49.539Z,53.40
2018-02-17T23:32:27.035Z,52.20
2018-02-17T23:35:08.542Z,51.58
2018-02-17T23:37:41.988Z,58.17
2018-02-17T23:40:15.429Z,58.05
2018-02-17T23:42:53.507Z,59.75
2018-02-17T23:45:31.651Z,49.88
2018-02-17T23:48:04.032Z,45.38
2018-02-17T23:50:37.374Z,48.55
2018-02-17T23:53:17.004Z,39.20
2018-02-17T23:55:54.733Z,45.00
2018-02-17T23:58:32.654Z,51.85
